createdAt,value
2022-09-15T00:02:13.458Z,21.3
2022-09-15T00:04:48.526Z,21.3
2022-09-15T00:07:21.378Z,21.2
2022-09-15T00:09:55.067Z,21.2
2022-09-15T00:12:27.519Z,21.2
2022-09-15T00:14:59.784Z,21.2
2022-09-15T00:17:33.352Z,21.2
2022-09-15T00:20:07.438Z,21.2
2022-09-15T00:22:42.596Z,21.1
2022-09-15T00:25:13.770Z,21.1
2022-09-15T00:27:46.462Z,21.1
2022-09-15T00:30:19.273Z,21.1
2022-09-15T00:32:52.240Z,21.1
2022-09-15T00:35:25.043Z,21.2
2022-09-15T00:37:58.841Z,21.2
2022-09-15T00:40:32.006Z,21.2
2022-09-15T00:43:04.617Z,21.2
2022-09-15T00:45:37.623Z,21.2
2022-09-15T00:48:09.940Z,21.1
2022-09-15T00:50:42.677Z,21.1
2022-09-15T00:53:15.206Z,21.1
2022-09-15T00:55:47.642Z,21.1
2022-09-15T00:58:20.380Z,21.2
2022-09-15T01:00:52.975Z,21.3
2022-09-15T01:03:26.159Z,21.3
2022-09-15T01:05:58.206Z,21.4
2022-09-15T01:08:32.152Z,21.4
2022-09-15T01:11:08.160Z,21.5
2022-09-15T01:13:43.154Z,21.4
2022-09-15T01:16:17.555Z,21.4
2022-09-15T01:18:50.166Z,21.4
2022-09-15T01:21:23.622Z,21.3
2022-09-15T01:23:56.232Z,21.3
2022-09-15T01:26:28.920Z,21.3
2022-09-15T01:29:01.802Z,21.3
2022-09-15T01:31:37.715Z,21.2
2022-09-15T01:34:10.425Z,21.2
2022-09-15T01:36:43.420Z,21.2
2022-09-15T01:39:16.377Z,21
2022-09-15T01:41:49.442Z,21.1
2022-09-15T01:44:22.248Z,21
2022-09-15T01:46:55.303Z,21
2022-09-15T01:49:29.341Z,21
2022-09-15T01:52:03.211Z,21.1
2022-09-15T01:54:35.133Z,21.1
2022-09-15T01:57:07.886Z,21.1
2022-09-15T01:59:40.143Z,21.1
2022-09-15T02:02:12.764Z,21.1
2022-09-15T02:04:52.206Z,21.2
2022-09-15T02:07:23.351Z,21.2
2022-09-15T02:09:58.658Z,21.2
2022-09-15T02:12:31.963Z,21.1
2022-09-15T02:15:04.655Z,21.1
2022-09-15T02:17:37.313Z,21.1
2022-09-15T02:20:10.059Z,21.1
2022-09-15T02:22:44.248Z,21.1
2022-09-15T02:25:16.772Z,21.1
2022-09-15T02:27:49.488Z,21.1
2022-09-15T02:30:21.800Z,21.1
2022-09-15T02:32:54.148Z,21.1
2022-09-15T02:35:26.851Z,21.1
2022-09-15T02:37:59.363Z,21
2022-09-15T02:40:33.564Z,21.1
2022-09-15T02:43:06.591Z,21.1
2022-09-15T02:45:38.760Z,21.1
2022-09-15T02:48:10.910Z,21.1
2022-09-15T02:50:44.304Z,21.1
2022-09-15T02:53:16.085Z,21.2
2022-09-15T02:55:48.211Z,21.2
2022-09-15T02:58:22.490Z,21.3
2022-09-15T03:00:55.800Z,21.3
2022-09-15T03:03:30.250Z,21.3
2022-09-15T03:06:04.189Z,21.3
2022-09-15T03:08:39.416Z,21.3
2022-09-15T03:11:10.922Z,21.4
2022-09-15T03:13:47.475Z,21.4
2022-09-15T03:16:20.826Z,21.3
2022-09-15T03:18:57.147Z,21.3
2022-09-15T03:21:28.771Z,21.3
2022-09-15T03:24:01.474Z,21.4
2022-09-15T03:26:34.088Z,21.5
2022-09-15T03:29:08.090Z,21.5
2022-09-15T03:31:41.263Z,21.5
2022-09-15T03:34:13.741Z,21.5
2022-09-15T03:36:46.331Z,21.5
2022-09-15T03:39:20.181Z,21.5
2022-09-15T03:42:05.102Z,21.5
2022-09-15T03:44:38.605Z,21.6
2022-09-15T03:47:11.073Z,21.5
2022-09-15T03:49:43.732Z,21.5
2022-09-15T03:52:16.725Z,21.5
2022-09-15T03:54:49.144Z,21.5
2022-09-15T03:57:21.815Z,21.5
2022-09-15T03:59:54.685Z,21.5
2022-09-15T04:02:30.559Z,21.4
2022-09-15T04:05:03.979Z,21.4
2022-09-15T04:07:36.861Z,21.5
2022-09-15T04:10:12.147Z,21.5
2022-09-15T04:12:47.479Z,21.5
2022-09-15T04:15:18.825Z,21.5
2022-09-15T04:17:51.437Z,21.5
2022-09-15T04:20:24.182Z,21.5
2022-09-15T04:22:58.565Z,21.5
2022-09-15T04:25:31.412Z,21.6
2022-09-15T04:28:05.301Z,21.6
2022-09-15T04:30:38.141Z,21.6
2022-09-15T04:33:10.884Z,21.6
2022-09-15T04:35:46.424Z,21.6
2022-09-15T04:38:17.930Z,21.6
2022-09-15T04:40:50.726Z,21.7
2022-09-15T04:43:23.135Z,21.6
2022-09-15T04:45:56.003Z,21.7
2022-09-15T04:48:28.599Z,21.7
2022-09-15T04:51:03.629Z,21.8
2022-09-15T04:53:36.280Z,21.8
2022-09-15T04:56:08.852Z,21.8
2022-09-15T04:58:41.539Z,21.8
2022-09-15T05:01:15.126Z,21.8
2022-09-15T05:03:47.744Z,21.9
2022-09-15T05:06:21.441Z,21.8
2022-09-15T05:08:54.649Z,21.8
2022-09-15T05:11:28.546Z,21.9
2022-09-15T05:14:00.919Z,21.9
2022-09-15T05:16:33.480Z,21.9
2022-09-15T05:19:05.803Z,21.9
2022-09-15T05:21:38.525Z,22
2022-09-15T05:24:10.946Z,21.9
2022-09-15T05:26:43.926Z,21.9
2022-09-15T05:29:16.277Z,21.9
2022-09-15T05:31:49.505Z,22
2022-09-15T05:34:23.088Z,22.1
2022-09-15T05:36:56.578Z,22.1
2022-09-15T05:39:28.581Z,22.1
2022-09-15T05:42:01.341Z,22.1
2022-09-15T05:44:36.806Z,22
2022-09-15T05:47:08.179Z,22
2022-09-15T05:49:40.846Z,22
2022-09-15T05:52:14.244Z,22
2022-09-15T05:54:48.152Z,22
2022-09-15T05:57:20.990Z,22
2022-09-15T05:59:54.479Z,22.1
2022-09-15T06:02:27.051Z,22.2
2022-09-15T06:05:05.019Z,22.3
2022-09-15T06:07:36.970Z,22.3
2022-09-15T06:10:15.417Z,22.5
2022-09-15T06:12:49.686Z,22.5
2022-09-15T06:15:21.719Z,22.7
2022-09-15T06:17:56.379Z,22.7
2022-09-15T06:20:29.293Z,22.8
2022-09-15T06:23:01.865Z,22.9
2022-09-15T06:25:35.030Z,22.9
2022-09-15T06:28:07.815Z,23
2022-09-15T06:30:40.351Z,23.1
2022-09-15T06:33:14.364Z,23.1
2022-09-15T06:35:47.632Z,23.2
2022-09-15T06:38:22.763Z,23.3
2022-09-15T06:40:54.229Z,23.4
2022-09-15T06:43:27.006Z,23.5
2022-09-15T06:45:59.499Z,23.6
2022-09-15T06:48:32.306Z,23.6
2022-09-15T06:51:07.350Z,23.6
2022-09-15T06:53:44.290Z,23.7
2022-09-15T06:56:15.820Z,23.7
2022-09-15T06:58:48.616Z,23.7
2022-09-15T07:01:21.332Z,23.8
2022-09-15T07:03:54.284Z,23.8
2022-09-15T07:06:26.886Z,23.9
2022-09-15T07:09:01.476Z,24
2022-09-15T07:11:35.244Z,24
2022-09-15T07:14:08.292Z,24.1
2022-09-15T07:16:41.407Z,24.2
2022-09-15T07:19:15.638Z,24.3
2022-09-15T07:21:48.444Z,24.4
2022-09-15T07:24:21.308Z,24.4
2022-09-15T07:26:55.621Z,24.5
2022-09-15T07:29:28.332Z,24.5
2022-09-15T07:32:01.209Z,24.5
2022-09-15T07:34:33.699Z,24.6
2022-09-15T07:37:06.308Z,24.6
2022-09-15T07:39:38.838Z,24.6
2022-09-15T07:42:11.621Z,24.7
2022-09-15T07:44:44.475Z,24.7
2022-09-15T07:47:18.327Z,24.8
2022-09-15T07:49:50.730Z,24.9
2022-09-15T07:52:24.167Z,25.1
2022-09-15T07:54:56.938Z,25.1
2022-09-15T07:57:29.891Z,25.3
2022-09-15T08:00:02.846Z,25.4
2022-09-15T08:02:35.725Z,25.5
2022-09-15T08:05:08.943Z,25.6
2022-09-15T08:07:41.596Z,25.6
2022-09-15T08:10:14.408Z,25.7
2022-09-15T08:12:47.306Z,25.8
2022-09-15T08:15:19.927Z,25.9
2022-09-15T08:17:52.375Z,26
2022-09-15T08:20:24.831Z,26
2022-09-15T08:22:57.580Z,26.1
2022-09-15T08:25:30.044Z,26.1
2022-09-15T08:28:02.444Z,26.2
2022-09-15T08:30:34.654Z,26.3
2022-09-15T08:33:07.529Z,26.3
2022-09-15T08:35:39.879Z,26.3
2022-09-15T08:38:12.688Z,26.3
2022-09-15T08:40:44.812Z,26.4
2022-09-15T08:43:17.635Z,26.5
2022-09-15T08:45:52.334Z,26.5
2022-09-15T08:48:24.559Z,26.5
2022-09-15T08:50:58.818Z,26.6
2022-09-15T08:53:30.219Z,26.7
2022-09-15T08:56:02.344Z,26.7
2022-09-15T08:58:34.378Z,26.8
2022-09-15T09:01:07.260Z,26.8
2022-09-15T09:03:42.427Z,26.9
2022-09-15T09:06:16.338Z,27
2022-09-15T09:08:47.774Z,26.9
2022-09-15T09:11:19.884Z,26.9
2022-09-15T09:13:52.325Z,26.9
2022-09-15T09:16:25.286Z,26.8
2022-09-15T09:18:57.819Z,26.8
2022-09-15T09:21:30.297Z,26.7
2022-09-15T09:24:02.910Z,26.7
2022-09-15T09:26:34.999Z,26.6
2022-09-15T09:29:07.755Z,26.5
2022-09-15T09:31:40.145Z,26.4
2022-09-15T09:34:11.649Z,26.3
2022-09-15T09:36:43.705Z,26.3
2022-09-15T09:39:16.667Z,26.2
2022-09-15T09:41:49.259Z,26.3
2022-09-15T09:44:21.351Z,26.2
2022-09-15T09:47:19.929Z,26.2
2022-09-15T09:50:01.931Z,26.4
2022-09-15T09:52:35.852Z,26.5
2022-09-15T09:55:10.460Z,26.5
2022-09-15T09:57:42.933Z,26.6
2022-09-15T10:00:16.398Z,26.5
2022-09-15T10:02:49.128Z,26.5
2022-09-15T10:08:04.618Z,26.7
2022-09-15T10:10:38.983Z,26.8
2022-09-15T10:13:13.540Z,26.8
2022-09-15T10:15:44.997Z,26.9
2022-09-15T10:18:17.057Z,26.8
2022-09-15T10:20:56.146Z,26.8
2022-09-15T10:23:26.052Z,27
2022-09-15T10:26:01.403Z,27.2
2022-09-15T10:28:33.221Z,27.4
2022-09-15T10:31:05.679Z,27.4
2022-09-15T10:33:38.252Z,27.4
2022-09-15T10:36:09.481Z,27.5
2022-09-15T10:38:43.375Z,27.6
2022-09-15T10:41:15.080Z,27.6
2022-09-15T10:43:49.925Z,27.6
2022-09-15T10:46:21.662Z,27.8
2022-09-15T10:48:53.911Z,27.8
2022-09-15T10:51:26.483Z,28
2022-09-15T10:54:01.339Z,28.1
2022-09-15T10:56:33.164Z,28.1
2022-09-15T10:59:05.742Z,28.1
2022-09-15T11:01:38.011Z,28.1
2022-09-15T11:04:13.324Z,28.2
2022-09-15T11:06:44.794Z,28.4
2022-09-15T11:09:17.353Z,28.5
2022-09-15T11:11:49.298Z,28.5
2022-09-15T11:14:22.042Z,28.5
2022-09-15T11:16:55.403Z,28.5
2022-09-15T11:19:27.604Z,28.5
2022-09-15T11:21:59.515Z,28.6
2022-09-15T11:24:32.414Z,28.5
2022-09-15T11:27:06.091Z,28.5
2022-09-15T11:29:39.501Z,28.5
2022-09-15T11:32:11.419Z,28.6
2022-09-15T11:34:43.943Z,28.7
2022-09-15T11:37:16.189Z,28.7
2022-09-15T11:39:53.620Z,28.8
2022-09-15T11:42:24.825Z,28.9
2022-09-15T11:44:57.040Z,28.8
2022-09-15T11:47:34.404Z,28.8
2022-09-15T11:50:06.664Z,28.7
2022-09-15T11:52:39.264Z,28.7
2022-09-15T11:55:12.078Z,28.7
2022-09-15T11:57:44.907Z,28.7
2022-09-15T12:00:17.527Z,28.8
2022-09-15T12:02:50.561Z,28.7
2022-09-15T12:05:22.109Z,28.7
2022-09-15T12:07:56.788Z,28.6
2022-09-15T12:10:29.102Z,28.5
2022-09-15T12:13:02.359Z,28.5
2022-09-15T12:15:36.425Z,28.5
2022-09-15T12:18:46.861Z,28.4
2022-09-15T12:21:17.585Z,28.5
2022-09-15T12:23:53.057Z,28.4
2022-09-15T12:26:25.457Z,28.4
2022-09-15T12:28:58.441Z,28.4
2022-09-15T12:31:31.920Z,28.5
2022-09-15T12:34:04.798Z,28.5
2022-09-15T12:36:37.666Z,28.5
2022-09-15T12:39:12.657Z,28.7
2022-09-15T12:41:47.902Z,28.7
2022-09-15T12:44:19.595Z,28.8
2022-09-15T12:46:52.097Z,28.7
2022-09-15T12:49:24.896Z,28.6
2022-09-15T12:51:57.510Z,28.6
2022-09-15T12:54:32.770Z,28.6
2022-09-15T12:57:04.484Z,28.4
2022-09-15T12:59:36.695Z,28.4
2022-09-15T13:02:11.724Z,28.3
2022-09-15T13:04:45.156Z,28.4
2022-09-15T13:07:17.830Z,28.4
2022-09-15T13:09:48.871Z,28.4
2022-09-15T13:12:21.804Z,28.4
2022-09-15T13:14:54.322Z,28.3
2022-09-15T13:17:26.993Z,28.3
2022-09-15T13:19:59.727Z,28.2
2022-09-15T13:22:34.647Z,28.2
2022-09-15T13:25:06.787Z,28.1
2022-09-15T13:27:45.146Z,28.1
2022-09-15T13:30:16.575Z,28.2
2022-09-15T13:32:49.341Z,28.2
2022-09-15T13:35:22.271Z,28.2
2022-09-15T13:38:29.241Z,28.2
2022-09-15T13:41:02.286Z,28.3
2022-09-15T13:43:46.805Z,28.3
2022-09-15T13:46:20.393Z,28.3
2022-09-15T13:48:52.709Z,28.2
2022-09-15T13:51:25.538Z,28.2
2022-09-15T13:53:58.887Z,28.2
2022-09-15T13:56:31.061Z,28.2
2022-09-15T13:59:17.784Z,28.1
2022-09-15T14:01:54.047Z,28.1
2022-09-15T14:04:26.440Z,28.1
2022-09-15T14:07:02.372Z,28.1
2022-09-15T14:09:33.965Z,28
2022-09-15T14:12:06.359Z,28
2022-09-15T14:14:38.802Z,28
2022-09-15T14:17:11.181Z,28
2022-09-15T14:19:43.973Z,28
2022-09-15T14:22:15.129Z,28
2022-09-15T14:24:46.936Z,28.1
2022-09-15T14:27:19.229Z,28.1
2022-09-15T14:29:51.666Z,28.1
2022-09-15T14:32:24.235Z,28.1
2022-09-15T14:34:56.633Z,28.1
2022-09-15T14:37:29.194Z,28.2
2022-09-15T14:40:04.292Z,28.1
2022-09-15T14:42:36.498Z,28.1
2022-09-15T14:46:09.037Z,28
2022-09-15T14:48:40.538Z,28.1
2022-09-15T14:51:13.660Z,28
2022-09-15T14:53:47.085Z,27.9
2022-09-15T14:56:19.300Z,27.9
2022-09-15T14:58:50.842Z,27.8
2022-09-15T15:01:26.828Z,27.8
2022-09-15T15:03:59.349Z,27.8
2022-09-15T15:06:31.248Z,27.8
2022-09-15T20:57:19.926Z,25.4
2022-09-15T20:59:52.714Z,25
2022-09-15T21:02:24.966Z,24.7
2022-09-15T21:04:57.693Z,24.5
2022-09-15T21:07:30.153Z,24.3
2022-09-15T21:10:02.813Z,24.1
2022-09-15T21:12:38.534Z,24
2022-09-15T21:15:10.846Z,24
2022-09-15T21:17:43.502Z,23.9
2022-09-15T21:20:16.108Z,23.9
2022-09-15T21:22:48.350Z,23.9
2022-09-15T21:25:21.124Z,23.8
2022-09-15T21:27:53.993Z,23.7
2022-09-15T21:30:27.289Z,23.7
2022-09-15T21:32:59.878Z,23.7
2022-09-15T21:35:34.975Z,23.6
2022-09-15T21:38:09.569Z,23.6
2022-09-15T21:40:42.524Z,23.5
2022-09-15T21:43:14.736Z,23.4
2022-09-15T21:45:47.492Z,23.4
2022-09-15T21:48:19.719Z,23.3
2022-09-15T21:50:52.405Z,23.2
2022-09-15T21:53:25.186Z,23.1
2022-09-15T21:55:57.816Z,23.1
2022-09-15T21:58:30.704Z,23.1
2022-09-15T22:01:03.539Z,23.2
2022-09-15T22:03:36.849Z,23.2
2022-09-15T22:06:09.610Z,23.2
2022-09-15T22:08:42.364Z,23.3
2022-09-15T22:11:14.994Z,23.3
2022-09-15T22:13:47.820Z,23.2
2022-09-15T22:16:20.713Z,23.1
2022-09-15T22:18:51.873Z,23.2
2022-09-15T22:21:24.601Z,23.3
2022-09-15T22:23:57.354Z,23.4
2022-09-15T22:26:29.893Z,23.4
2022-09-15T22:29:02.778Z,23.4
2022-09-15T22:31:35.834Z,23.5
2022-09-15T22:34:08.885Z,23.4
2022-09-15T22:36:41.524Z,23.4
2022-09-15T22:39:14.513Z,23.3
2022-09-15T22:41:49.859Z,23.3
2022-09-15T22:44:23.126Z,23.4
2022-09-15T22:46:58.712Z,23.3
2022-09-15T22:49:30.240Z,23.3
2022-09-15T22:52:02.800Z,23.3
2022-09-15T22:54:35.518Z,23.2
2022-09-15T22:57:11.103Z,23.3
2022-09-15T22:59:42.210Z,23.3
2022-09-15T23:02:15.068Z,23.4
2022-09-15T23:04:47.360Z,23.3
2022-09-15T23:07:23.110Z,23.3
2022-09-15T23:09:57.483Z,23.3
2022-09-15T23:12:35.637Z,23.2
2022-09-15T23:15:08.227Z,23.2
2022-09-15T23:17:40.630Z,23.2
2022-09-15T23:20:12.238Z,23.2
2022-09-15T23:22:44.738Z,23.1
2022-09-15T23:25:17.320Z,23.1
2022-09-15T23:27:49.439Z,23
2022-09-15T23:30:21.557Z,23
2022-09-15T23:32:54.520Z,23
2022-09-15T23:35:26.971Z,23.1
2022-09-15T23:37:59.166Z,23
2022-09-15T23:40:33.242Z,22.9
2022-09-15T23:43:11.030Z,23
2022-09-15T23:45:43.874Z,22.9
2022-09-15T23:48:16.841Z,23
2022-09-15T23:50:50.131Z,23
2022-09-15T23:53:22.078Z,22.9
2022-09-15T23:55:54.586Z,22.9
2022-09-15T23:58:26.602Z,22.7
